Hot Springs Recreation Area, Montana
Current Conditions -  °F | °C
As of 8:53 PM on Tuesday 21 Oct 2014 (Local Time) from KDLN Reporting Station
Light Snow Light Snow  
Wind Chill: 28°   Ceiling: Unl
Heat Index: 37°   Visibility: 10mi
Dew Point: 33°   Wind: 14mph
Humidity: 86%   Direction: 200°SSW
Pressure: 30.02"   Gusts: NA
Location:  45.36°N, 113.46°W
Report Text: KDLN 220253Z AUTO 20012KT 10SM -SN CLR 03/01 A3002 RMK AO2 RAE0158SNB0158 SLP150 P0000 60000 T00280006 51012
Loading
Personal Weather Stations






























Interactive Weather Map New forecast layout! Learn more

10-Day Weather Forecast

Advertisements
Track Severe Weather on mobile